»·PEaware :: UAL943 KSFO-KLAS

UAL943 :: KSFO-KLAS

FLIGHT INFORMATION

Flight Status: Arrived
Operator:
United Airlines
More flights by this operator :: More flights under this callsign
Pilot: Jac C. (16067)
Aircraft: AIRBUS A320
(A320)
More flights by this aircraft type
Origin: KSFO San Francisco Intl
United States
Destination: KLAS McCarran Intl
United States
More flights between these airports :: More routes between these airports
Route: SSTIK3 NTELL Q162 ESSAA BTY FUZZY8
File this flight plan on PilotEdge
Remarks:
Altitude:
(Current/Filed)
35,000ft
Speed:
(Current/Filed)
438kts
Departed: 21-Feb-18 07:21 PM
Arrived: 21-Feb-18 08:28 PM
Distance/Time
Traveled:
359nm/1:07
Distance/Time
To Go:
Arrived

Flight Plot

Page will automatically refresh every two minutes.

Flight plan parsing failed; only flown route is shown


Map Options




Map Legend


Flown Route
Filed Route
Departure Airport
Arrival Airport
Navaid (VOR, NDB)
Fix

Horizontal Profiles

Position Reports

Time Latitude Longitude Heading Altitude Ground
Speed
21-Feb-18 18:52 37.620195 -122.389416 28 32ft 0kts
21-Feb-18 18:53 37.620195 -122.389416 28 32ft 0kts
21-Feb-18 18:54 37.620195 -122.389416 28 32ft 0kts
21-Feb-18 18:55 37.620195 -122.389416 28 32ft 0kts
21-Feb-18 18:56 37.620195 -122.389416 28 32ft 0kts
21-Feb-18 18:57 37.620195 -122.389416 28 32ft 0kts
21-Feb-18 18:58 37.620195 -122.389416 28 32ft 0kts
21-Feb-18 18:59 37.620195 -122.389416 28 32ft 0kts
21-Feb-18 19:00 37.620195 -122.389416 28 32ft 0kts
21-Feb-18 19:01 37.620195 -122.389416 28 32ft 0kts
21-Feb-18 19:02 37.620195 -122.389416 28 32ft 0kts
21-Feb-18 19:03 37.620195 -122.389416 28 32ft 0kts
21-Feb-18 19:04 37.620195 -122.389416 28 32ft 0kts
21-Feb-18 19:05 37.620195 -122.389416 28 32ft 0kts
21-Feb-18 19:06 37.620195 -122.389416 28 32ft 0kts
21-Feb-18 19:07 37.620195 -122.389416 28 32ft 0kts
21-Feb-18 19:08 37.620195 -122.389416 28 32ft 0kts
21-Feb-18 19:09 37.620195 -122.389416 28 32ft 0kts
21-Feb-18 19:10 37.620195 -122.389416 28 32ft 0kts
21-Feb-18 19:11 37.620023 -122.389531 28 32ft 2kts
21-Feb-18 19:12 37.619528 -122.389570 310 32ft 2kts
21-Feb-18 19:13 37.619466 -122.389440 297 32ft 0kts
21-Feb-18 19:14 37.619466 -122.389440 297 32ft 0kts
21-Feb-18 19:15 37.619466 -122.389440 297 32ft 0kts
21-Feb-18 19:16 37.619466 -122.389440 297 32ft 0kts
21-Feb-18 19:17 37.619681 -122.390391 292 32ft 8kts
21-Feb-18 19:18 37.620074 -122.391370 297 32ft 0kts
21-Feb-18 19:19 37.621561 -122.391507 28 32ft 13kts
21-Feb-18 19:20 37.622055 -122.387737 118 31ft 13kts
21-Feb-18 19:21 37.620316 -122.383546 116 32ft 14kts
21-Feb-18 19:22 37.617936 -122.379511 163 31ft 14kts
21-Feb-18 19:23 37.614147 -122.381280 207 32ft 15kts
21-Feb-18 19:24 37.610257 -122.383883 214 32ft 16kts
21-Feb-18 19:25 37.608486 -122.383893 117 32ft 0kts
21-Feb-18 19:26 37.608486 -122.383892 117 32ft 0kts
21-Feb-18 19:27 37.608162 -122.382929 79 31ft 11kts
21-Feb-18 19:28 37.628078 -122.369485 28 631ft 165kts
21-Feb-18 19:29 37.678615 -122.361687 2 3129ft 226kts
21-Feb-18 19:30 37.710892 -122.425013 249 5880ft 279kts
21-Feb-18 19:31 37.644334 -122.462522 182 9027ft 292kts
21-Feb-18 19:32 37.560540 -122.468853 183 11339ft 332kts
21-Feb-18 19:33 37.471008 -122.442999 127 13469ft 354kts
21-Feb-18 19:34 37.413846 -122.340834 114 15839ft 364kts
21-Feb-18 19:35 37.387516 -122.217682 103 17954ft 374kts
21-Feb-18 19:36 37.362053 -122.089413 103 19885ft 385kts
21-Feb-18 19:37 37.335780 -121.958217 103 21617ft 396kts
21-Feb-18 19:38 37.308635 -121.823538 103 23196ft 406kts
21-Feb-18 19:39 37.280521 -121.684956 103 24638ft 414kts
21-Feb-18 19:40 37.251757 -121.544087 103 25944ft 423kts
21-Feb-18 19:41 37.222102 -121.399812 103 27165ft 431kts
21-Feb-18 19:42 37.192791 -121.258144 103 28232ft 438kts
21-Feb-18 19:43 37.162947 -121.114844 103 29224ft 445kts
21-Feb-18 19:44 37.131455 -120.964646 103 30147ft 451kts
21-Feb-18 19:45 37.099322 -120.812443 103 30986ft 457kts
21-Feb-18 19:46 37.066691 -120.658894 103 32073ft 455kts
21-Feb-18 19:47 37.034207 -120.507121 103 33046ft 453kts
21-Feb-18 19:48 37.004921 -120.371176 104 33796ft 453kts
21-Feb-18 19:49 36.973263 -120.225132 102 34072ft 468kts
21-Feb-18 19:50 36.938363 -120.065314 100 34172ft 491kts
21-Feb-18 19:51 36.909879 -119.899162 82 34780ft 484kts
21-Feb-18 19:52 36.947178 -119.744529 60 35284ft 462kts
21-Feb-18 19:53 36.995678 -119.596259 60 35289ft 462kts
21-Feb-18 19:54 37.043836 -119.447938 60 35290ft 463kts
21-Feb-18 19:55 37.091230 -119.301240 61 35188ft 463kts
21-Feb-18 19:56 37.138888 -119.152978 61 35109ft 463kts
21-Feb-18 19:57 37.186853 -119.002985 61 35121ft 463kts
21-Feb-18 19:58 37.234426 -118.853439 61 35131ft 464kts
21-Feb-18 19:59 37.278131 -118.701177 74 35169ft 477kts
21-Feb-18 20:00 37.293693 -118.535556 77 35167ft 479kts
21-Feb-18 20:01 37.306639 -118.393483 77 35154ft 479kts
21-Feb-18 20:02 37.321186 -118.231379 77 35143ft 479kts
21-Feb-18 20:03 37.335836 -118.065482 77 35145ft 479kts
21-Feb-18 20:04 37.349343 -117.899448 83 35154ft 483kts
21-Feb-18 20:05 37.336306 -117.729958 91 35161ft 490kts
21-Feb-18 20:06 37.321034 -117.559857 91 35108ft 495kts
21-Feb-18 20:07 37.305348 -117.388106 91 35139ft 497kts
21-Feb-18 20:08 37.251015 -117.232349 126 35163ft 513kts
21-Feb-18 20:09 37.164708 -117.091039 126 35148ft 511kts
21-Feb-18 20:10 37.077722 -116.951634 134 35170ft 511kts
21-Feb-18 20:11 36.958882 -116.857207 153 35187ft 509kts
21-Feb-18 20:12 36.837938 -116.773462 153 35170ft 507kts
21-Feb-18 20:13 36.734772 -116.654105 129 34049ft 515kts
21-Feb-18 20:14 36.640316 -116.519198 129 31308ft 519kts
21-Feb-18 20:15 36.546977 -116.386818 129 29547ft 500kts
21-Feb-18 20:16 36.458267 -116.261529 130 27509ft 480kts
21-Feb-18 20:17 36.372501 -116.140837 130 24216ft 455kts
21-Feb-18 20:18 36.291781 -116.027654 130 20989ft 427kts
21-Feb-18 20:19 36.215638 -115.921242 130 18156ft 398kts
21-Feb-18 20:20 36.167152 -115.812076 112 16261ft 348kts
21-Feb-18 20:21 36.127173 -115.707095 112 13897ft 326kts
21-Feb-18 20:22 36.090623 -115.611333 114 12821ft 299kts
21-Feb-18 20:23 36.055077 -115.518564 114 11774ft 295kts
21-Feb-18 20:24 36.034796 -115.423771 92 10837ft 287kts
21-Feb-18 20:25 36.031900 -115.334758 92 9820ft 248kts
21-Feb-18 20:26 36.029306 -115.253728 92 8454ft 235kts
21-Feb-18 20:27 36.026639 -115.171032 92 7007ft 249kts
21-Feb-18 20:28 36.024385 -115.085551 92 5954ft 243kts
21-Feb-18 20:29 36.022573 -115.006317 92 5391ft 221kts
21-Feb-18 20:30 36.028725 -114.940663 32 5039ft 180kts
21-Feb-18 20:31 36.074290 -114.950177 289 5053ft 178kts
21-Feb-18 20:32 36.074241 -115.008342 265 3947ft 161kts
21-Feb-18 20:33 36.073802 -115.061053 270 2929ft 149kts
21-Feb-18 20:34 36.073637 -115.112487 268 2219ft 147kts
21-Feb-18 20:35 36.073754 -115.143147 278 2095ft 25kts
21-Feb-18 20:36 36.074944 -115.146333 316 2105ft 2kts
21-Feb-18 20:37 36.077436 -115.146510 23 2104ft 11kts
21-Feb-18 20:38 36.078040 -115.141607 3 2086ft 17kts
21-Feb-18 20:39 36.081606 -115.141357 44 2076ft 6kts
21-Feb-18 20:40 36.082219 -115.139984 48 2072ft 0kts
21-Feb-18 20:41 36.082219 -115.139984 48 2072ft 0kts
21-Feb-18 20:42 36.082219 -115.139984 48 2072ft 0kts

Navigation Log

Ident Type
Flight plan parsing failed, navigation log unavailable